createdAt,value
2022-08-04T00:02:02.891Z,22.80
2022-08-04T00:04:29.573Z,20.30
2022-08-04T00:06:56.329Z,20.10
2022-08-04T00:09:33.861Z,21.30
2022-08-04T00:12:02.164Z,20.00
2022-08-04T00:14:31.160Z,20.00
2022-08-04T00:16:58.004Z,22.60
2022-08-04T00:19:29.457Z,20.00
2022-08-04T00:21:58.981Z,21.50
2022-08-04T00:24:26.087Z,20.40
2022-08-04T00:26:55.828Z,20.00
2022-08-04T00:29:23.203Z,19.90
2022-08-04T00:31:56.554Z,19.90
2022-08-04T00:34:25.978Z,19.80
2022-08-04T00:36:55.606Z,19.70
2022-08-04T00:39:22.858Z,19.60
2022-08-04T00:41:56.280Z,19.60
2022-08-04T00:44:26.888Z,19.50
2022-08-04T00:47:12.522Z,19.40
2022-08-04T00:49:57.025Z,19.20
2022-08-04T00:52:33.914Z,19.10
2022-08-04T00:55:06.905Z,19.00
2022-08-04T00:57:42.951Z,18.90
2022-08-04T01:00:11.983Z,18.70
2022-08-04T01:02:51.028Z,18.60
2022-08-04T01:05:54.291Z,18.60
2022-08-04T01:08:40.368Z,18.70
2022-08-04T01:11:31.594Z,18.70
2022-08-04T01:14:10.655Z,18.70
2022-08-04T01:16:45.134Z,18.80
2022-08-04T01:19:50.507Z,18.70
2022-08-04T01:22:33.386Z,18.80
2022-08-04T01:25:06.736Z,18.80
2022-08-04T01:27:53.819Z,18.80
2022-08-04T01:30:21.170Z,18.90
2022-08-04T01:33:02.135Z,19.00
2022-08-04T01:35:47.312Z,21.50
2022-08-04T01:38:18.348Z,21.60
2022-08-04T01:40:49.519Z,18.90
2022-08-04T01:43:16.435Z,18.80
2022-08-04T01:45:48.427Z,18.60
2022-08-04T01:48:15.677Z,18.60
2022-08-04T01:50:43.435Z,18.60
2022-08-04T01:53:10.388Z,18.50
2022-08-04T01:55:54.881Z,18.50
2022-08-04T01:58:23.436Z,18.40
2022-08-04T02:01:16.525Z,18.50
2022-08-04T02:04:22.029Z,18.60
2022-08-04T02:06:48.382Z,18.50
2022-08-04T02:09:15.117Z,18.40
2022-08-04T02:11:43.888Z,18.40
2022-08-04T02:14:12.790Z,18.40
2022-08-04T02:16:42.602Z,18.40
2022-08-04T02:19:30.109Z,18.30
2022-08-04T02:21:58.092Z,18.30
2022-08-04T02:24:27.291Z,18.30
2022-08-04T02:26:56.430Z,18.30
2022-08-04T02:29:34.603Z,18.30
2022-08-04T02:32:06.360Z,19.80
2022-08-04T02:34:45.531Z,18.10
2022-08-04T02:37:12.469Z,18.00
2022-08-04T02:39:48.783Z,18.10
2022-08-04T02:42:16.938Z,20.80
2022-08-04T02:44:46.486Z,20.00
2022-08-04T02:47:13.676Z,19.20
2022-08-04T02:49:42.324Z,19.20
2022-08-04T02:52:09.832Z,18.20
2022-08-04T02:54:39.713Z,18.20
2022-08-04T02:57:11.062Z,18.40
2022-08-04T02:59:49.868Z,18.40
2022-08-04T03:02:18.352Z,18.40
2022-08-04T03:04:54.596Z,18.50
2022-08-04T03:07:40.307Z,18.50
2022-08-04T03:10:19.335Z,18.40
2022-08-04T03:12:59.139Z,18.40
2022-08-04T03:15:29.074Z,18.50
2022-08-04T03:18:16.008Z,18.40
2022-08-04T03:20:42.831Z,18.40
2022-08-04T03:23:28.267Z,18.50
2022-08-04T03:26:13.716Z,18.40
2022-08-04T03:29:00.626Z,18.40
2022-08-04T03:31:30.353Z,18.30
2022-08-04T03:34:15.299Z,18.30
2022-08-04T03:36:42.045Z,18.30
2022-08-04T03:39:30.370Z,18.40
2022-08-04T03:42:08.062Z,18.40
2022-08-04T03:44:53.959Z,18.40
2022-08-04T03:47:26.081Z,18.40
2022-08-04T03:49:52.748Z,18.30
2022-08-04T03:52:38.200Z,18.20
2022-08-04T03:55:11.115Z,18.90
2022-08-04T03:57:56.687Z,18.00
2022-08-04T04:00:45.117Z,18.00
2022-08-04T04:03:28.484Z,18.00
2022-08-04T04:06:12.377Z,18.10
2022-08-04T04:08:49.589Z,18.20
2022-08-04T04:11:35.415Z,19.50
2022-08-04T04:14:39.611Z,18.00
2022-08-04T04:17:06.445Z,17.90
2022-08-04T04:19:58.325Z,17.90
2022-08-04T04:22:43.887Z,17.90
2022-08-04T04:25:16.698Z,18.00
2022-08-04T04:27:49.927Z,18.10
2022-08-04T04:30:19.897Z,18.20
2022-08-04T04:32:58.875Z,18.50
2022-08-04T04:35:25.538Z,18.30
2022-08-04T04:38:17.286Z,18.40
2022-08-04T04:41:02.756Z,18.50
2022-08-04T04:43:51.351Z,18.60
2022-08-04T04:46:38.187Z,18.80
2022-08-04T04:49:24.855Z,18.80
2022-08-04T04:51:51.470Z,18.90
2022-08-04T04:54:37.564Z,19.00
2022-08-04T04:57:10.859Z,19.00
2022-08-04T04:59:39.316Z,19.00
2022-08-04T05:02:13.340Z,19.00
2022-08-04T05:04:40.001Z,19.10
2022-08-04T05:07:18.301Z,19.10
2022-08-04T05:09:51.183Z,19.10
2022-08-04T05:14:33.077Z,19.90
2022-08-04T05:15:08.657Z,19.30
2022-08-04T05:17:36.780Z,20.40
2022-08-04T05:20:11.319Z,19.40
2022-08-04T05:22:45.443Z,19.50
2022-08-04T05:25:25.567Z,19.50
2022-08-04T05:27:57.751Z,19.60
2022-08-04T05:30:25.935Z,19.60
2022-08-04T05:33:01.090Z,19.90
2022-08-04T05:35:50.528Z,19.80
2022-08-04T05:38:26.453Z,19.90
2022-08-04T05:40:54.872Z,20.00
2022-08-04T05:43:23.647Z,20.10
2022-08-04T05:45:52.017Z,20.20
2022-08-04T05:48:19.220Z,21.00
2022-08-04T05:50:46.731Z,21.00
2022-08-04T05:53:13.930Z,20.50
2022-08-04T05:55:56.709Z,21.90
2022-08-04T05:58:25.533Z,21.70
2022-08-04T06:00:52.967Z,21.50
2022-08-04T06:03:20.494Z,21.50
2022-08-04T06:05:47.961Z,21.30
2022-08-04T06:08:14.642Z,20.90
2022-08-04T06:10:42.835Z,22.50
2022-08-04T06:13:49.687Z,22.40
2022-08-04T06:16:01.501Z,21.20
2022-08-04T06:19:57.671Z,21.40
2022-08-04T06:21:19.002Z,23.40
2022-08-04T06:23:53.771Z,22.40
2022-08-04T06:26:28.678Z,21.50
2022-08-04T06:28:56.388Z,23.40
2022-08-04T06:32:28.898Z,22.30
2022-08-04T06:34:30.980Z,21.80
2022-08-04T06:36:58.159Z,22.50
2022-08-04T06:39:25.998Z,22.50
2022-08-04T06:41:55.253Z,22.10
2022-08-04T06:44:40.685Z,23.10
2022-08-04T06:47:07.621Z,24.30
2022-08-04T06:49:44.146Z,23.90
2022-08-04T06:52:22.096Z,22.40
2022-08-04T06:54:50.501Z,22.50
2022-08-04T06:57:18.774Z,22.60
2022-08-04T06:59:46.620Z,22.70
2022-08-04T07:02:15.045Z,22.70
2022-08-04T07:04:43.042Z,22.90
2022-08-04T07:07:10.812Z,22.90
2022-08-04T07:09:37.963Z,23.10
2022-08-04T07:12:05.623Z,23.20
2022-08-04T07:14:36.062Z,23.30
2022-08-04T07:17:08.029Z,23.40
2022-08-04T07:19:36.175Z,23.40
2022-08-04T07:22:16.842Z,23.50
2022-08-04T07:24:54.396Z,23.70
2022-08-04T07:27:47.731Z,23.90
2022-08-04T07:30:11.000Z,25.10
2022-08-04T07:32:41.528Z,23.90
2022-08-04T07:35:08.544Z,24.00
2022-08-04T07:37:55.227Z,24.10
2022-08-04T07:40:21.954Z,24.20
2022-08-04T07:42:48.672Z,24.50
2022-08-04T07:45:18.175Z,24.60
2022-08-04T07:48:05.338Z,26.00
2022-08-04T07:50:33.733Z,24.90
2022-08-04T07:53:52.672Z,25.00
2022-08-04T07:55:48.083Z,25.10
2022-08-04T07:58:14.825Z,25.20
2022-08-04T08:00:41.552Z,25.30
2022-08-04T08:03:08.661Z,25.40
2022-08-04T08:05:35.797Z,25.60
2022-08-04T08:08:22.429Z,25.70
2022-08-04T08:10:49.183Z,25.80
2022-08-04T08:13:16.654Z,25.90
2022-08-04T08:15:44.818Z,25.90
2022-08-04T08:18:14.450Z,26.10
2022-08-04T08:20:44.238Z,26.20
2022-08-04T08:23:10.888Z,26.30
2022-08-04T08:25:37.818Z,26.40
2022-08-04T08:28:05.388Z,26.50
2022-08-04T08:30:33.031Z,26.60
2022-08-04T08:33:07.233Z,26.70
2022-08-04T08:35:54.462Z,26.80
2022-08-04T08:38:30.293Z,26.80
2022-08-04T08:41:20.337Z,27.00
2022-08-04T08:44:07.033Z,27.10
2022-08-04T08:46:52.865Z,27.20
2022-08-04T08:50:02.407Z,27.30
2022-08-04T08:53:00.902Z,27.40
2022-08-04T08:55:44.792Z,27.60
2022-08-04T08:58:11.407Z,27.80
2022-08-04T09:00:41.128Z,27.80
2022-08-04T09:03:26.830Z,27.90
2022-08-04T09:05:56.474Z,28.10
2022-08-04T09:08:29.917Z,28.20
2022-08-04T09:11:03.583Z,28.30
2022-08-04T09:13:34.059Z,28.40
2022-08-04T09:16:21.213Z,28.50
2022-08-04T09:18:54.050Z,28.50
2022-08-04T09:21:32.088Z,28.80
2022-08-04T09:24:36.707Z,28.90
2022-08-04T09:27:08.231Z,29.10
2022-08-04T09:29:37.941Z,29.30
2022-08-04T09:32:07.992Z,29.40
2022-08-04T09:34:40.542Z,29.50
2022-08-04T09:37:25.498Z,29.70
2022-08-04T09:39:55.282Z,29.80
2022-08-04T09:42:37.178Z,30.00
2022-08-04T09:45:12.445Z,30.20
2022-08-04T09:47:41.002Z,30.30
2022-08-04T09:50:26.620Z,30.40
2022-08-04T09:52:59.238Z,30.50
2022-08-04T09:55:38.222Z,30.60
2022-08-04T09:58:40.698Z,30.70
2022-08-04T10:01:13.315Z,30.90
2022-08-04T10:03:45.268Z,30.90
2022-08-04T10:06:30.821Z,31.00
2022-08-04T10:09:11.970Z,31.00
2022-08-04T10:11:55.369Z,31.10
2022-08-04T10:14:37.771Z,31.40
2022-08-04T10:17:15.921Z,31.60
2022-08-04T10:19:42.745Z,31.80
2022-08-04T10:22:28.646Z,32.00
2022-08-04T10:26:02.561Z,32.20
2022-08-04T10:28:08.078Z,32.30
2022-08-04T10:30:37.155Z,32.40
2022-08-04T10:33:12.527Z,32.50
2022-08-04T10:35:46.538Z,32.60
2022-08-04T10:38:25.152Z,32.70
2022-08-04T10:41:09.546Z,32.80
2022-08-04T10:43:36.277Z,32.90
2022-08-04T10:46:17.869Z,33.00
2022-08-04T10:48:53.420Z,33.10
2022-08-04T10:51:58.911Z,33.30
2022-08-04T10:54:27.522Z,33.40
2022-08-04T10:57:13.655Z,33.60
2022-08-04T11:00:04.622Z,33.70
2022-08-04T11:02:34.464Z,33.70
2022-08-04T11:05:18.044Z,33.80
2022-08-04T11:07:45.963Z,33.90
2022-08-04T11:10:12.997Z,34.00
2022-08-04T11:12:40.591Z,34.00
2022-08-04T11:15:18.834Z,34.10
2022-08-04T11:17:48.676Z,34.30
2022-08-04T11:20:36.968Z,34.10
2022-08-04T11:23:08.878Z,33.80
2022-08-04T11:26:01.949Z,33.90
2022-08-04T11:28:34.170Z,34.00
2022-08-04T11:31:15.352Z,34.10
2022-08-04T11:34:00.785Z,34.30
2022-08-04T11:36:33.667Z,34.40
2022-08-04T11:39:07.887Z,34.50
2022-08-04T11:42:00.973Z,34.40
2022-08-04T11:44:41.632Z,34.60
2022-08-04T11:47:11.279Z,34.70
2022-08-04T11:49:56.585Z,34.70
2022-08-04T11:52:26.197Z,34.70
2022-08-04T11:54:54.671Z,34.80
2022-08-04T11:57:35.117Z,34.70
2022-08-04T12:00:07.678Z,34.50
2022-08-04T12:02:53.566Z,34.20
2022-08-04T12:05:35.282Z,33.90
2022-08-04T12:08:10.145Z,33.50
2022-08-04T12:10:40.269Z,33.20
2022-08-04T12:13:13.226Z,33.10
2022-08-04T12:15:50.010Z,32.70
2022-08-04T12:18:24.811Z,32.50
2022-08-04T12:20:59.111Z,32.70
2022-08-04T12:24:00.527Z,32.90
2022-08-04T12:26:28.922Z,33.10
2022-08-04T12:29:15.113Z,33.10
2022-08-04T12:31:45.743Z,32.90
2022-08-04T12:34:25.363Z,32.60
2022-08-04T12:37:02.870Z,32.60
2022-08-04T12:39:30.310Z,32.70
2022-08-04T12:41:57.144Z,33.10
2022-08-04T12:44:36.448Z,33.20
2022-08-04T12:47:36.832Z,33.10
2022-08-04T12:50:05.187Z,33.00
2022-08-04T12:55:29.532Z,33.40
2022-08-04T12:57:56.562Z,33.50
2022-08-04T13:00:31.341Z,33.50
2022-08-04T13:03:05.914Z,33.50
2022-08-04T13:05:38.675Z,33.60
2022-08-04T13:08:06.292Z,33.50
2022-08-04T13:10:37.337Z,33.50
2022-08-04T13:13:04.209Z,33.50
2022-08-04T13:15:33.644Z,33.50
2022-08-04T13:18:15.544Z,33.80
2022-08-04T13:20:44.000Z,33.90
2022-08-04T13:23:12.392Z,34.00
2022-08-04T13:26:45.101Z,34.20
2022-08-04T13:28:31.629Z,34.30
2022-08-04T13:31:02.476Z,34.50
2022-08-04T13:33:37.465Z,34.50
2022-08-04T13:36:05.582Z,34.50
2022-08-04T13:38:33.705Z,34.30
2022-08-04T13:41:02.117Z,34.20
2022-08-04T13:44:15.887Z,34.00
2022-08-04T13:46:27.908Z,33.90
2022-08-04T13:49:28.408Z,34.10
2022-08-04T13:51:57.945Z,34.30
2022-08-04T13:54:26.079Z,34.40
2022-08-04T13:56:59.226Z,34.50
2022-08-04T13:59:27.677Z,34.50
2022-08-04T14:01:59.625Z,34.50
2022-08-04T14:04:28.053Z,34.40
2022-08-04T14:07:04.061Z,34.50
2022-08-04T14:09:35.529Z,34.40
2022-08-04T14:12:38.529Z,34.40
2022-08-04T14:15:00.668Z,34.20
2022-08-04T14:17:27.492Z,34.00
2022-08-04T14:19:58.828Z,33.80
2022-08-04T14:22:25.703Z,33.80
2022-08-04T14:25:19.546Z,34.00
2022-08-04T14:27:53.549Z,33.90
2022-08-04T14:30:26.289Z,33.90
2022-08-04T14:32:57.869Z,34.00
2022-08-04T14:35:26.382Z,34.10
2022-08-04T14:37:54.191Z,34.10
2022-08-04T14:40:30.209Z,34.00
2022-08-04T14:42:58.384Z,33.90
2022-08-04T14:45:29.754Z,33.90
2022-08-04T14:47:56.673Z,33.90
2022-08-04T14:50:39.820Z,34.00
2022-08-04T14:53:08.950Z,34.00
2022-08-04T14:55:35.916Z,34.10
2022-08-04T14:58:35.957Z,34.10
2022-08-04T15:00:52.725Z,34.10
2022-08-04T15:03:20.195Z,34.10
2022-08-04T15:05:59.778Z,34.10
2022-08-04T15:08:32.832Z,34.10
2022-08-04T15:11:02.516Z,34.00
2022-08-04T15:13:30.424Z,33.90
2022-08-04T15:16:06.270Z,33.70
2022-08-04T15:18:34.753Z,33.60
2022-08-04T15:21:02.457Z,33.50
2022-08-04T15:23:37.248Z,33.50
2022-08-04T15:26:07.625Z,33.60
2022-08-04T15:28:36.942Z,33.60
2022-08-04T15:31:05.010Z,33.60
2022-08-04T15:33:39.631Z,33.60
2022-08-04T15:36:12.770Z,33.50
2022-08-04T15:38:42.932Z,33.60
2022-08-04T15:41:14.527Z,33.80
2022-08-04T15:43:55.341Z,33.80
2022-08-04T15:46:49.704Z,33.80
2022-08-04T15:49:20.505Z,33.80
2022-08-04T15:51:47.325Z,33.70
2022-08-04T15:54:16.943Z,33.60
2022-08-04T15:57:02.833Z,33.60
2022-08-04T15:59:48.823Z,33.60
2022-08-04T16:02:33.928Z,33.60
2022-08-04T16:05:17.721Z,33.60
2022-08-04T16:07:57.272Z,33.70
2022-08-04T16:10:43.797Z,33.70
2022-08-04T16:13:14.712Z,33.70
2022-08-04T16:15:43.209Z,33.80
2022-08-04T16:18:15.785Z,34.00
2022-08-04T16:20:57.658Z,34.20
2022-08-04T16:23:52.454Z,34.20
2022-08-04T16:26:14.249Z,34.20
2022-08-04T16:28:57.287Z,34.10
2022-08-04T16:31:24.046Z,34.10
2022-08-04T16:34:36.657Z,34.20
2022-08-04T16:37:01.321Z,34.10
2022-08-04T16:39:28.392Z,34.10
2022-08-04T16:41:55.269Z,34.10
2022-08-04T16:44:51.553Z,33.90
2022-08-04T16:47:34.690Z,33.90
2022-08-04T16:50:05.280Z,33.70
2022-08-04T16:52:32.562Z,33.60
2022-08-04T16:54:59.319Z,33.60
2022-08-04T16:57:26.163Z,33.60
2022-08-04T16:59:52.966Z,33.50
2022-08-04T17:02:24.331Z,33.50
2022-08-04T17:05:00.921Z,33.50
2022-08-04T17:08:28.496Z,33.40
2022-08-04T17:10:50.726Z,33.40
2022-08-04T17:14:02.089Z,33.50
2022-08-04T17:16:13.225Z,33.60
2022-08-04T17:18:41.953Z,33.70
2022-08-04T17:21:11.173Z,33.80
2022-08-04T17:24:14.884Z,33.80
2022-08-04T17:26:40.103Z,33.80
2022-08-04T17:29:09.158Z,33.90
2022-08-04T17:31:38.061Z,33.80
2022-08-04T17:34:26.400Z,33.70
2022-08-04T17:36:53.318Z,33.70
2022-08-04T17:39:21.705Z,33.60
2022-08-04T17:41:49.670Z,33.50
2022-08-04T17:44:17.791Z,33.40
2022-08-04T17:46:45.643Z,33.20
2022-08-04T17:49:18.333Z,33.10
2022-08-04T17:52:06.374Z,33.10
2022-08-04T17:54:38.819Z,33.00
2022-08-04T17:57:18.641Z,32.90
2022-08-04T17:59:56.148Z,32.70
2022-08-04T18:02:31.776Z,32.70
2022-08-04T18:05:07.662Z,32.60
2022-08-04T18:08:38.248Z,32.50
2022-08-04T18:10:44.479Z,32.40
2022-08-04T18:13:21.593Z,32.20
2022-08-04T18:15:48.442Z,32.00
2022-08-04T18:18:21.217Z,31.90
2022-08-04T18:20:50.117Z,31.80
2022-08-04T18:23:17.092Z,31.60
2022-08-04T18:25:50.453Z,31.50
2022-08-04T18:28:26.524Z,31.40
2022-08-04T18:30:55.221Z,31.30
2022-08-04T18:33:40.392Z,31.20
2022-08-04T18:36:34.779Z,31.10
2022-08-04T18:39:13.239Z,31.10
2022-08-04T18:42:01.275Z,30.90
2022-08-04T18:44:30.991Z,30.70
2022-08-04T18:47:18.979Z,30.40
2022-08-04T18:51:00.922Z,30.20
2022-08-04T18:52:32.333Z,29.90
2022-08-04T18:55:01.964Z,29.60
2022-08-04T18:57:58.710Z,29.40
2022-08-04T19:00:16.073Z,29.20
2022-08-04T19:02:46.719Z,29.00
2022-08-04T19:05:17.443Z,28.70
2022-08-04T19:08:11.586Z,28.50
2022-08-04T19:13:25.530Z,27.80
2022-08-04T19:15:53.961Z,27.50
2022-08-04T19:18:20.678Z,27.40
2022-08-04T19:20:49.083Z,27.20
2022-08-04T19:24:11.679Z,27.20
2022-08-04T19:26:07.854Z,27.10
2022-08-04T19:28:38.690Z,27.10
2022-08-04T19:31:07.036Z,27.20
2022-08-04T19:33:58.030Z,27.30
2022-08-04T19:36:20.876Z,27.30
2022-08-04T19:38:55.614Z,27.30
2022-08-04T19:41:22.673Z,27.00
2022-08-04T19:43:53.200Z,26.80
2022-08-04T19:46:20.192Z,26.70
2022-08-04T19:49:00.461Z,26.70
2022-08-04T19:51:28.918Z,26.50
2022-08-04T19:54:02.446Z,26.40
2022-08-04T19:56:40.482Z,26.20
2022-08-04T19:59:11.154Z,26.20
2022-08-04T20:01:44.210Z,26.10
2022-08-04T20:04:11.809Z,26.10
2022-08-04T20:06:39.474Z,26.00
2022-08-04T20:09:24.938Z,26.10
2022-08-04T20:11:53.766Z,26.10
2022-08-04T20:14:31.127Z,25.90
2022-08-04T20:17:00.304Z,25.90
2022-08-04T20:19:27.100Z,25.80
2022-08-04T20:21:56.520Z,25.60
2022-08-04T20:24:39.900Z,25.60
2022-08-04T20:27:15.433Z,25.40
2022-08-04T20:29:49.015Z,25.20
2022-08-04T20:32:23.859Z,25.20
2022-08-04T20:34:51.965Z,24.70
2022-08-04T20:37:19.570Z,24.50
2022-08-04T20:42:34.461Z,24.10
2022-08-04T20:45:01.605Z,23.90
2022-08-04T20:47:31.124Z,23.80
2022-08-04T20:50:08.792Z,23.90
2022-08-04T20:52:37.221Z,23.80
2022-08-04T20:55:04.854Z,23.80
2022-08-04T20:57:49.471Z,23.80
2022-08-04T21:00:26.578Z,23.80
2022-08-04T21:02:57.512Z,23.80
2022-08-04T21:05:24.242Z,23.80
2022-08-04T21:07:56.679Z,23.80
2022-08-04T21:10:24.218Z,24.10
2022-08-04T21:12:52.739Z,23.80
2022-08-04T21:15:25.133Z,23.80
2022-08-04T21:17:57.724Z,23.80
2022-08-04T21:20:29.471Z,23.80
2022-08-04T21:23:01.591Z,23.70
2022-08-04T21:25:29.378Z,23.60
2022-08-04T21:27:58.834Z,23.60
2022-08-04T21:30:28.756Z,23.40
2022-08-04T21:32:55.700Z,23.30
2022-08-04T21:35:26.727Z,23.20
2022-08-04T21:38:17.185Z,22.80
2022-08-04T21:40:50.898Z,22.70
2022-08-04T21:43:20.842Z,22.70
2022-08-04T21:45:50.609Z,24.30
2022-08-04T21:48:17.525Z,24.10
2022-08-04T21:50:44.373Z,23.10
2022-08-04T21:53:19.552Z,24.70
2022-08-04T21:56:04.538Z,22.70
2022-08-04T21:58:33.697Z,22.70
2022-08-04T22:01:00.488Z,22.90
2022-08-04T22:03:52.386Z,22.90
2022-08-04T22:06:17.496Z,22.90
2022-08-04T22:08:49.142Z,23.00
2022-08-04T22:11:48.216Z,23.10
2022-08-04T22:14:16.185Z,23.10
2022-08-04T22:16:45.324Z,23.10
2022-08-04T22:19:13.609Z,23.10
2022-08-04T22:24:27.167Z,23.40
2022-08-04T22:26:56.716Z,22.80
2022-08-04T22:29:23.498Z,22.80
2022-08-04T22:31:56.121Z,22.90
2022-08-04T22:34:24.769Z,25.30
2022-08-04T22:36:52.573Z,23.80
2022-08-04T22:39:23.713Z,22.90
2022-08-04T22:42:04.042Z,23.50
2022-08-04T22:44:33.085Z,25.90
2022-08-04T22:47:00.828Z,23.10
2022-08-04T22:49:31.146Z,23.10
2022-08-04T22:51:59.051Z,25.30
2022-08-04T22:54:28.602Z,23.20
2022-08-04T22:56:56.966Z,23.30
2022-08-04T22:59:23.982Z,24.40
2022-08-04T23:02:00.061Z,24.30
2022-08-04T23:04:28.255Z,23.40
2022-08-04T23:06:54.978Z,23.30
2022-08-04T23:09:22.199Z,23.40
2022-08-04T23:12:24.538Z,23.50
2022-08-04T23:14:52.420Z,23.30
2022-08-04T23:17:19.074Z,24.00
2022-08-04T23:19:58.191Z,24.80
2022-08-04T23:22:40.952Z,23.30
2022-08-04T23:25:15.504Z,23.30
2022-08-04T23:27:48.251Z,23.20
2022-08-04T23:30:19.988Z,25.70
2022-08-04T23:32:48.804Z,23.30
2022-08-04T23:35:16.078Z,23.20
2022-08-04T23:37:57.381Z,23.50
2022-08-04T23:40:29.901Z,25.30
2022-08-04T23:42:59.516Z,23.10
2022-08-04T23:46:04.302Z,25.80
2022-08-04T23:48:15.206Z,25.30
2022-08-04T23:50:46.187Z,24.00
2022-08-04T23:53:18.604Z,22.90
2022-08-04T23:55:49.166Z,22.90
2022-08-04T23:58:18.768Z,24.60
